createdAt,value
2023-03-03T00:01:53.871Z,65.91
2023-03-03T00:04:20.545Z,65.42
2023-03-03T00:06:47.188Z,65.51
2023-03-03T00:09:13.830Z,68.35
2023-03-03T00:11:40.488Z,67.92
2023-03-03T00:14:22.192Z,67.27
2023-03-03T00:16:49.977Z,70.59
2023-03-03T00:19:19.564Z,68.72
2023-03-03T00:21:48.232Z,68.94
2023-03-03T00:24:18.231Z,71.56
2023-03-03T00:26:55.723Z,71.07
2023-03-03T00:29:28.475Z,69.20
2023-03-03T00:31:55.843Z,71.53
2023-03-03T00:34:27.496Z,71.13
2023-03-03T00:36:56.349Z,71.78
2023-03-03T00:39:38.903Z,69.01
2023-03-03T00:42:16.908Z,70.23
2023-03-03T00:45:00.393Z,68.36
2023-03-03T00:47:45.140Z,69.04
2023-03-03T00:50:11.751Z,68.57
2023-03-03T00:52:52.368Z,67.14
2023-03-03T00:55:18.989Z,68.39
2023-03-03T00:57:45.529Z,68.80
2023-03-03T01:00:13.205Z,69.06
2023-03-03T01:02:39.992Z,67.65
2023-03-03T01:05:06.928Z,67.77
2023-03-03T01:07:33.524Z,67.43
2023-03-03T01:10:00.156Z,66.48
2023-03-03T01:12:26.818Z,66.90
2023-03-03T01:14:55.458Z,68.33
2023-03-03T01:17:22.178Z,68.09
2023-03-03T01:19:48.811Z,67.83
2023-03-03T01:22:15.896Z,68.04
2023-03-03T01:24:42.511Z,67.21
2023-03-03T01:27:09.122Z,66.90
2023-03-03T01:29:35.760Z,69.06
2023-03-03T01:32:02.444Z,68.32
2023-03-03T01:34:29.147Z,67.64
2023-03-03T01:36:55.808Z,66.93
2023-03-03T01:39:22.510Z,66.18
2023-03-03T01:41:49.167Z,66.62
2023-03-03T01:44:16.318Z,66.05
2023-03-03T01:47:09.055Z,66.57
2023-03-03T01:49:51.034Z,66.88
2023-03-03T01:52:33.416Z,67.10
2023-03-03T01:55:04.804Z,68.95
2023-03-03T01:57:35.357Z,69.11
2023-03-03T02:00:03.841Z,69.14
2023-03-03T02:02:31.894Z,69.23
2023-03-03T02:04:58.850Z,67.52
2023-03-03T02:07:28.289Z,67.79
2023-03-03T02:09:54.824Z,69.28
2023-03-03T02:12:25.993Z,72.35
2023-03-03T02:14:52.618Z,71.72
2023-03-03T02:17:19.338Z,70.99
2023-03-03T02:20:05.542Z,69.97
2023-03-03T02:22:51.034Z,71.26
2023-03-03T02:25:28.880Z,68.99
2023-03-03T02:27:57.189Z,67.23
2023-03-03T02:30:25.774Z,72.43
2023-03-03T02:32:52.453Z,72.62
2023-03-03T02:35:34.758Z,69.61
2023-03-03T02:38:17.784Z,68.47
2023-03-03T02:40:57.217Z,67.58
2023-03-03T02:43:29.253Z,68.56
2023-03-03T02:45:56.476Z,69.64
2023-03-03T02:48:23.142Z,70.38
2023-03-03T02:50:50.391Z,75.16
2023-03-03T02:53:17.002Z,75.13
2023-03-03T02:55:43.786Z,74.19
2023-03-03T02:58:10.421Z,73.68
2023-03-03T03:00:37.073Z,70.87
2023-03-03T03:03:03.894Z,69.55
2023-03-03T03:05:30.453Z,69.19
2023-03-03T03:07:56.989Z,68.79
2023-03-03T03:10:23.598Z,68.31
2023-03-03T03:12:50.250Z,68.32
2023-03-03T03:15:17.666Z,69.45
2023-03-03T03:17:44.393Z,69.83
2023-03-03T03:20:11.771Z,74.68
2023-03-03T03:22:38.448Z,73.33
2023-03-03T03:25:05.395Z,74.64
2023-03-03T03:27:32.093Z,72.95
2023-03-03T03:29:58.716Z,71.75
2023-03-03T03:32:25.351Z,71.67
2023-03-03T03:34:51.951Z,70.42
2023-03-03T03:37:18.629Z,70.41
2023-03-03T03:39:45.270Z,70.13
2023-03-03T03:42:12.025Z,70.24
2023-03-03T03:44:38.703Z,70.13
2023-03-03T03:47:05.455Z,74.45
2023-03-03T03:49:32.101Z,73.62
2023-03-03T03:51:58.722Z,71.94
2023-03-03T03:54:25.393Z,70.96
2023-03-03T03:56:51.974Z,70.30
2023-03-03T03:59:18.559Z,69.92
2023-03-03T04:01:45.224Z,70.71
2023-03-03T04:04:12.013Z,69.49
2023-03-03T04:06:38.758Z,70.14
2023-03-03T04:09:05.421Z,70.71
2023-03-03T04:11:32.053Z,71.82
2023-03-03T04:13:58.682Z,73.29
2023-03-03T04:16:25.364Z,72.92
2023-03-03T04:18:52.099Z,72.08
2023-03-03T04:21:18.914Z,71.16
2023-03-03T04:23:45.573Z,70.70
2023-03-03T04:26:12.191Z,70.65
2023-03-03T04:28:38.757Z,70.67
2023-03-03T04:31:05.500Z,71.43
2023-03-03T04:33:32.253Z,71.09
2023-03-03T04:35:58.963Z,71.32
2023-03-03T04:38:26.325Z,70.27
2023-03-03T04:40:52.987Z,72.23
2023-03-03T04:43:19.653Z,71.83
2023-03-03T04:45:46.275Z,72.23
2023-03-03T04:48:13.045Z,71.58
2023-03-03T04:50:39.772Z,71.74
2023-03-03T04:53:06.417Z,71.96
2023-03-03T04:55:33.412Z,72.70
2023-03-03T04:58:00.051Z,71.87
2023-03-03T05:00:26.668Z,72.48
2023-03-03T05:02:53.686Z,72.19
2023-03-03T05:05:20.315Z,71.90
2023-03-03T05:07:46.886Z,71.62
2023-03-03T05:10:13.492Z,73.58
2023-03-03T05:12:40.084Z,73.17
2023-03-03T05:15:07.613Z,74.10
2023-03-03T05:17:34.465Z,73.06
2023-03-03T05:20:01.068Z,72.41
2023-03-03T05:22:30.936Z,72.31
2023-03-03T05:24:57.695Z,72.24
2023-03-03T05:27:24.451Z,72.11
2023-03-03T05:29:52.431Z,72.55
2023-03-03T05:32:19.186Z,71.96
2023-03-03T05:34:45.918Z,71.58
2023-03-03T05:37:12.817Z,72.12
2023-03-03T05:39:39.542Z,74.50
2023-03-03T05:42:06.323Z,74.83
2023-03-03T05:44:32.931Z,74.38
2023-03-03T05:46:59.692Z,73.09
2023-03-03T05:49:26.740Z,72.86
2023-03-03T05:51:53.427Z,72.88
2023-03-03T05:54:20.022Z,72.30
2023-03-03T05:56:46.666Z,76.26
2023-03-03T05:59:13.273Z,74.50
2023-03-03T06:01:39.886Z,73.07
2023-03-03T06:04:06.512Z,72.50
2023-03-03T06:06:33.217Z,74.16
2023-03-03T06:08:59.936Z,73.83
2023-03-03T06:11:26.519Z,77.37
2023-03-03T06:13:53.180Z,76.26
2023-03-03T06:16:20.730Z,73.32
2023-03-03T06:18:48.596Z,71.84
2023-03-03T06:21:15.190Z,71.55
2023-03-03T06:23:41.919Z,72.54
2023-03-03T06:26:08.588Z,71.40
2023-03-03T06:28:35.198Z,71.55
2023-03-03T06:31:02.254Z,71.80
2023-03-03T06:33:28.863Z,71.93
2023-03-03T06:35:55.679Z,71.87
2023-03-03T06:38:22.272Z,75.20
2023-03-03T06:40:48.969Z,73.46
2023-03-03T06:43:15.739Z,72.71
2023-03-03T06:45:43.365Z,71.91
2023-03-03T06:48:10.052Z,70.66
2023-03-03T06:50:36.828Z,71.00
2023-03-03T06:53:15.389Z,73.03
2023-03-03T06:55:44.810Z,74.17
2023-03-03T06:58:17.135Z,74.02
2023-03-03T07:00:46.331Z,73.92
2023-03-03T07:03:16.535Z,73.78
2023-03-03T07:05:43.424Z,72.74
2023-03-03T07:08:15.065Z,71.98
2023-03-03T07:10:42.128Z,73.78
2023-03-03T07:13:35.021Z,72.42
2023-03-03T07:16:11.461Z,72.35
2023-03-03T07:18:54.694Z,73.17
2023-03-03T07:21:35.010Z,72.65
2023-03-03T07:24:22.003Z,72.28
2023-03-03T07:26:48.851Z,71.89
2023-03-03T07:29:22.394Z,72.59
2023-03-03T07:31:50.359Z,75.63
2023-03-03T07:34:40.194Z,74.54
2023-03-03T07:37:36.081Z,72.92
2023-03-03T07:40:27.190Z,72.48
2023-03-03T07:42:53.808Z,72.07
2023-03-03T07:45:32.596Z,72.95
2023-03-03T07:48:19.960Z,72.20
2023-03-03T07:50:47.688Z,71.55
2023-03-03T07:53:26.407Z,71.02
2023-03-03T07:55:53.134Z,71.41
2023-03-03T07:58:24.859Z,70.77
2023-03-03T08:01:31.900Z,71.84
2023-03-03T08:03:58.777Z,72.81
2023-03-03T08:07:02.279Z,69.85
2023-03-03T08:09:32.018Z,70.69
2023-03-03T08:12:07.265Z,70.60
2023-03-03T08:14:38.997Z,71.51
2023-03-03T08:17:22.177Z,70.88
2023-03-03T08:19:51.183Z,74.80
2023-03-03T08:22:30.352Z,76.38
2023-03-03T08:24:57.249Z,73.96
2023-03-03T08:27:25.495Z,71.40
2023-03-03T08:29:52.154Z,71.60
2023-03-03T08:32:20.417Z,71.99
2023-03-03T08:34:47.345Z,70.66
2023-03-03T08:37:13.982Z,72.33
2023-03-03T08:39:40.728Z,73.68
2023-03-03T08:42:07.287Z,71.16
2023-03-03T08:44:34.505Z,71.08
2023-03-03T08:47:04.249Z,70.65
2023-03-03T08:49:32.180Z,71.06
2023-03-03T08:52:01.194Z,72.40
2023-03-03T08:54:35.032Z,71.81
2023-03-03T08:57:01.596Z,71.08
2023-03-03T08:59:28.448Z,71.10
2023-03-03T09:01:55.171Z,72.01
2023-03-03T09:04:22.018Z,71.40
2023-03-03T09:06:48.651Z,70.10
2023-03-03T09:09:17.002Z,70.52
2023-03-03T09:11:45.611Z,69.36
2023-03-03T09:14:15.200Z,68.59
2023-03-03T09:16:51.066Z,69.12
2023-03-03T09:19:30.901Z,70.16
2023-03-03T09:22:03.227Z,69.60
2023-03-03T09:24:31.971Z,68.98
2023-03-03T09:26:59.592Z,66.43
2023-03-03T09:29:29.215Z,65.74
2023-03-03T09:32:02.621Z,67.47
2023-03-03T09:34:40.014Z,67.60
2023-03-03T09:37:28.658Z,66.28
2023-03-03T09:39:59.998Z,67.33
2023-03-03T09:42:48.137Z,67.96
2023-03-03T09:45:42.609Z,67.67
2023-03-03T09:48:45.804Z,68.26
2023-03-03T09:51:30.099Z,69.92
2023-03-03T09:54:08.894Z,70.74
2023-03-03T09:57:06.509Z,68.54
2023-03-03T09:59:47.315Z,69.59
2023-03-03T10:02:42.885Z,68.35
2023-03-03T10:05:31.609Z,69.20
2023-03-03T10:08:28.869Z,69.57
2023-03-03T10:11:09.657Z,70.58
2023-03-03T10:13:52.740Z,70.14
2023-03-03T10:16:50.029Z,68.84
2023-03-03T10:19:53.269Z,70.46
2023-03-03T10:22:28.547Z,70.05
2023-03-03T10:24:55.206Z,69.86
2023-03-03T10:27:43.565Z,70.63
2023-03-03T10:30:41.194Z,69.15
2023-03-03T10:33:30.600Z,68.53
2023-03-03T10:36:12.317Z,69.37
2023-03-03T10:39:10.241Z,67.54
2023-03-03T10:42:07.119Z,68.56
2023-03-03T10:45:08.467Z,69.34
2023-03-03T10:47:56.519Z,70.11
2023-03-03T10:50:53.804Z,69.96
2023-03-03T10:53:39.214Z,69.00
2023-03-03T10:56:31.017Z,68.35
2023-03-03T10:59:09.263Z,68.66
2023-03-03T11:01:35.884Z,69.67
2023-03-03T11:04:14.628Z,69.90
2023-03-03T11:06:56.298Z,69.96
2023-03-03T11:10:07.598Z,69.55
2023-03-03T11:12:54.146Z,70.07
2023-03-03T11:15:38.921Z,70.94
2023-03-03T11:18:05.466Z,71.78
2023-03-03T11:20:44.380Z,72.22
2023-03-03T11:23:30.982Z,71.12
2023-03-03T11:26:41.695Z,71.10
2023-03-03T11:29:25.573Z,71.32
2023-03-03T11:31:57.697Z,71.64
2023-03-03T11:34:43.124Z,70.92
2023-03-03T11:37:57.233Z,70.72
2023-03-03T11:41:08.615Z,72.50
2023-03-03T11:43:48.749Z,72.04
2023-03-03T11:46:25.536Z,71.79
2023-03-03T11:49:17.218Z,70.16
2023-03-03T11:51:43.838Z,70.16
2023-03-03T11:54:47.218Z,71.62
2023-03-03T11:57:32.190Z,71.54
2023-03-03T12:00:05.090Z,72.61
2023-03-03T12:02:56.630Z,72.40
2023-03-03T12:05:41.982Z,73.46
2023-03-03T12:08:17.434Z,72.48
2023-03-03T12:11:02.385Z,71.05
2023-03-03T12:13:48.655Z,71.19
2023-03-03T12:16:52.866Z,71.99
2023-03-03T12:19:32.082Z,73.58
2023-03-03T12:22:04.457Z,73.84
2023-03-03T12:24:59.104Z,75.18
2023-03-03T12:27:25.664Z,74.62
2023-03-03T12:30:10.779Z,73.99
2023-03-03T12:33:06.389Z,76.44
2023-03-03T12:36:00.471Z,78.13
2023-03-03T12:38:39.002Z,78.67
2023-03-03T12:41:32.113Z,77.00
2023-03-03T12:44:26.949Z,76.23
2023-03-03T12:47:08.469Z,75.96
2023-03-03T12:50:06.561Z,74.70
2023-03-03T12:52:56.934Z,76.02
2023-03-03T12:55:41.926Z,76.29
2023-03-03T12:58:31.708Z,74.55
2023-03-03T13:01:37.020Z,75.44
2023-03-03T13:04:13.837Z,75.46
2023-03-03T13:06:53.043Z,74.88
2023-03-03T13:09:37.877Z,74.48
2023-03-03T13:12:13.836Z,75.72
2023-03-03T13:14:54.497Z,75.85
2023-03-03T13:17:52.904Z,74.80
2023-03-03T13:20:32.120Z,74.80
2023-03-03T13:23:10.569Z,75.72
2023-03-03T13:25:37.306Z,76.00
2023-03-03T13:28:32.871Z,75.63
2023-03-03T13:31:27.606Z,76.04
2023-03-03T13:34:01.490Z,75.03
2023-03-03T13:36:33.975Z,74.90
2023-03-03T13:39:06.991Z,74.65
2023-03-03T13:41:51.478Z,73.36
2023-03-03T13:44:42.752Z,73.30
2023-03-03T13:47:14.753Z,74.18
2023-03-03T13:49:53.264Z,73.00
2023-03-03T13:52:27.367Z,72.97
2023-03-03T13:55:14.054Z,73.48
2023-03-03T13:58:05.067Z,72.36
2023-03-03T14:00:39.573Z,72.54
2023-03-03T14:03:09.412Z,72.88
2023-03-03T14:05:37.710Z,71.88
2023-03-03T14:08:18.166Z,70.94
2023-03-03T14:10:56.388Z,73.20
2023-03-03T14:13:49.257Z,73.39
2023-03-03T14:16:30.051Z,73.46
2023-03-03T14:19:33.158Z,73.89
2023-03-03T14:22:24.274Z,73.20
2023-03-03T14:25:07.425Z,73.00
2023-03-03T14:27:49.124Z,74.73
2023-03-03T14:30:27.414Z,74.31
2023-03-03T14:33:09.403Z,73.33
2023-03-03T14:35:43.690Z,72.95
2023-03-03T14:38:19.405Z,73.72
2023-03-03T14:40:48.492Z,74.65
2023-03-03T14:43:27.080Z,75.07
2023-03-03T14:45:54.357Z,74.58
2023-03-03T14:48:26.295Z,73.62
2023-03-03T14:51:04.722Z,74.25
2023-03-03T14:53:44.883Z,74.00
2023-03-03T14:56:23.000Z,73.49
2023-03-03T14:58:51.039Z,76.50
2023-03-03T15:01:17.657Z,76.16
2023-03-03T15:03:59.492Z,75.86
2023-03-03T15:06:35.100Z,75.45
2023-03-03T15:09:43.228Z,74.64
2023-03-03T15:12:38.601Z,73.39
2023-03-03T15:15:11.600Z,74.42
2023-03-03T15:17:57.791Z,74.38
2023-03-03T15:20:39.352Z,75.45
2023-03-03T15:23:20.954Z,74.53
2023-03-03T15:25:54.995Z,74.18
2023-03-03T15:28:42.790Z,73.22
2023-03-03T15:31:35.151Z,73.11
2023-03-03T15:34:39.116Z,73.03
2023-03-03T15:37:42.478Z,72.75
2023-03-03T15:40:28.269Z,72.54
2023-03-03T15:43:10.320Z,72.49
2023-03-03T15:45:58.724Z,72.24
2023-03-03T15:48:37.351Z,72.13
2023-03-03T15:51:16.853Z,72.32
2023-03-03T15:54:02.261Z,73.08
2023-03-03T15:56:38.742Z,74.33
2023-03-03T15:59:46.360Z,74.03
2023-03-03T16:02:21.740Z,74.37
2023-03-03T16:05:14.238Z,73.98
2023-03-03T16:08:00.988Z,73.78
2023-03-03T16:10:36.563Z,73.47
2023-03-03T16:13:22.190Z,73.51
2023-03-03T16:15:53.600Z,73.85
2023-03-03T16:18:48.362Z,74.01
2023-03-03T16:21:29.015Z,73.91
2023-03-03T16:24:01.054Z,72.84
2023-03-03T16:27:08.901Z,73.03
2023-03-03T16:30:06.503Z,73.12
2023-03-03T16:32:43.682Z,72.67
2023-03-03T16:35:21.265Z,72.73
2023-03-03T16:38:00.606Z,72.99
2023-03-03T16:40:38.190Z,73.48
2023-03-03T16:43:27.720Z,74.05
2023-03-03T16:46:02.318Z,73.18
2023-03-03T16:48:43.190Z,73.65
2023-03-03T16:51:29.110Z,72.95
2023-03-03T16:54:11.270Z,73.38
2023-03-03T16:56:52.375Z,72.98
2023-03-03T16:59:36.236Z,72.93
2023-03-03T17:02:33.728Z,72.49
2023-03-03T17:05:15.240Z,72.31
2023-03-03T17:07:59.976Z,72.03
2023-03-03T17:10:35.467Z,72.27
2023-03-03T17:13:23.602Z,71.53
2023-03-03T17:16:12.267Z,70.88
2023-03-03T17:19:00.645Z,71.38
2023-03-03T17:21:57.960Z,70.65
2023-03-03T17:24:47.076Z,70.47
2023-03-03T17:27:37.871Z,70.52
2023-03-03T17:30:42.313Z,70.41
2023-03-03T17:33:33.372Z,70.88
2023-03-03T17:36:26.031Z,70.99
2023-03-03T17:39:15.917Z,71.23
2023-03-03T17:42:11.482Z,70.85
2023-03-03T17:44:50.657Z,70.77
2023-03-03T17:47:36.370Z,70.44
2023-03-03T17:50:26.335Z,71.34
2023-03-03T17:53:17.471Z,71.46
2023-03-03T17:56:07.692Z,71.58
2023-03-03T17:59:04.284Z,70.83
2023-03-03T18:02:04.503Z,70.52
2023-03-03T18:05:29.253Z,71.42
2023-03-03T18:08:21.114Z,71.00
2023-03-03T18:11:12.863Z,71.78
2023-03-03T18:14:00.918Z,70.65
2023-03-03T18:16:58.312Z,70.27
2023-03-03T18:19:24.951Z,71.35
2023-03-03T18:22:05.526Z,70.62
2023-03-03T18:24:38.267Z,71.01
2023-03-03T18:27:32.859Z,70.45
2023-03-03T18:30:08.566Z,70.39
2023-03-03T18:32:45.501Z,70.37
2023-03-03T18:35:33.560Z,70.79
2023-03-03T18:38:15.906Z,70.83
2023-03-03T18:41:00.071Z,72.41
2023-03-03T18:43:45.139Z,71.88
2023-03-03T18:46:20.931Z,71.37
2023-03-03T18:48:52.323Z,71.11
2023-03-03T18:51:34.507Z,71.04
2023-03-03T18:54:26.356Z,70.79
2023-03-03T18:56:52.880Z,69.83
2023-03-03T18:59:32.241Z,69.84
2023-03-03T19:02:13.897Z,72.90
2023-03-03T19:04:43.400Z,75.38
2023-03-03T19:07:27.873Z,72.75
2023-03-03T19:10:04.156Z,72.35
2023-03-03T19:12:52.841Z,73.53
2023-03-03T19:15:32.125Z,73.18
2023-03-03T19:18:02.533Z,71.45
2023-03-03T19:20:41.289Z,71.43
2023-03-03T19:23:18.273Z,72.59
2023-03-03T19:25:44.908Z,71.68
2023-03-03T19:28:38.657Z,71.50
2023-03-03T19:31:32.339Z,72.01
2023-03-03T19:34:38.575Z,73.16
2023-03-03T19:37:23.028Z,74.36
2023-03-03T19:40:00.900Z,73.95
2023-03-03T19:43:11.657Z,73.25
2023-03-03T19:46:08.451Z,72.75
2023-03-03T19:48:52.226Z,71.67
2023-03-03T19:51:33.847Z,70.96
2023-03-03T19:54:34.978Z,70.19
2023-03-03T19:57:04.623Z,71.17
2023-03-03T19:59:41.545Z,70.01
2023-03-03T20:02:42.619Z,70.92
2023-03-03T20:05:41.388Z,70.48
2023-03-03T20:08:36.099Z,72.19
2023-03-03T20:11:39.001Z,71.48
2023-03-03T20:14:20.832Z,71.43
2023-03-03T20:16:50.416Z,71.10
2023-03-03T20:19:35.220Z,71.07
2023-03-03T20:22:18.443Z,71.64
2023-03-03T20:25:11.129Z,71.29
2023-03-03T20:27:49.829Z,70.58
2023-03-03T20:30:31.149Z,71.41
2023-03-03T20:33:20.775Z,74.00
2023-03-03T20:35:56.762Z,72.37
2023-03-03T20:38:41.855Z,72.40
2023-03-03T20:41:45.566Z,72.30
2023-03-03T20:44:47.222Z,71.57
2023-03-03T20:47:29.336Z,70.87
2023-03-03T20:50:18.510Z,69.97
2023-03-03T20:53:23.482Z,69.72
2023-03-03T20:56:24.003Z,70.90
2023-03-03T20:59:11.455Z,71.69
2023-03-03T21:01:47.287Z,72.08
2023-03-03T21:04:18.645Z,73.11
2023-03-03T21:06:45.458Z,74.37
2023-03-03T21:09:44.268Z,74.29
2023-03-03T21:12:30.742Z,75.20
2023-03-03T21:15:08.139Z,75.18
2023-03-03T21:17:34.871Z,75.48
2023-03-03T21:20:27.829Z,75.01
2023-03-03T21:22:55.823Z,74.51
2023-03-03T21:25:40.768Z,74.76
2023-03-03T21:28:18.766Z,77.06
2023-03-03T21:31:22.034Z,77.98
2023-03-03T21:33:58.142Z,78.64
2023-03-03T21:36:36.857Z,78.13
2023-03-03T21:39:19.748Z,78.83
2023-03-03T21:42:02.176Z,77.37
2023-03-03T21:44:34.124Z,76.64
2023-03-03T21:47:00.986Z,76.41
2023-03-03T21:49:27.956Z,77.96
2023-03-03T21:51:56.414Z,78.78
2023-03-03T21:54:23.426Z,76.48
2023-03-03T21:56:50.510Z,76.50
2023-03-03T21:59:18.367Z,74.59
2023-03-03T22:01:45.752Z,76.12
2023-03-03T22:04:12.374Z,78.58
2023-03-03T22:06:38.962Z,79.35
2023-03-03T22:09:06.414Z,78.08
2023-03-03T22:11:33.724Z,79.26
2023-03-03T22:14:00.324Z,80.50
2023-03-03T22:16:26.982Z,77.92
2023-03-03T22:18:53.557Z,77.62
2023-03-03T22:21:20.349Z,78.11
2023-03-03T22:23:46.981Z,79.86
2023-03-03T22:26:13.619Z,80.10
2023-03-03T22:28:41.517Z,77.92
2023-03-03T22:31:09.901Z,77.68
2023-03-03T22:33:36.593Z,75.96
2023-03-03T22:36:03.325Z,75.73
2023-03-03T22:38:29.942Z,76.79
2023-03-03T22:40:56.557Z,79.05
2023-03-03T22:43:23.413Z,80.32
2023-03-03T22:45:50.914Z,78.16
2023-03-03T22:48:17.817Z,77.90
2023-03-03T22:50:45.603Z,78.07
2023-03-03T22:53:12.266Z,76.56
2023-03-03T22:55:39.032Z,77.97
2023-03-03T22:58:09.452Z,77.28
2023-03-03T23:00:38.492Z,75.38
2023-03-03T23:03:09.650Z,75.71
2023-03-03T23:05:36.839Z,75.74
2023-03-03T23:08:05.225Z,74.54
2023-03-03T23:10:31.947Z,75.98
2023-03-03T23:12:58.569Z,74.97
2023-03-03T23:15:25.369Z,75.66
2023-03-03T23:17:52.189Z,75.85
2023-03-03T23:20:21.858Z,74.96
2023-03-03T23:22:48.511Z,74.68
2023-03-03T23:25:15.451Z,75.83
2023-03-03T23:27:43.249Z,76.50
2023-03-03T23:30:12.790Z,77.12
2023-03-03T23:32:39.529Z,75.80
2023-03-03T23:35:06.509Z,74.44
2023-03-03T23:37:33.148Z,76.03
2023-03-03T23:40:00.216Z,74.22
2023-03-03T23:42:27.948Z,73.68
2023-03-03T23:44:54.610Z,73.89
2023-03-03T23:47:21.265Z,74.41
2023-03-03T23:49:47.935Z,73.72
2023-03-03T23:52:14.722Z,74.30
2023-03-03T23:54:41.390Z,74.66
2023-03-03T23:57:08.193Z,73.37
2023-03-03T23:59:35.944Z,74.30
